Time,TemperatureF,DewpointF,PressureIn,WindDirection,WindDirectionDegrees,WindSpeedMPH,WindSpeedGustMPH,Humidity,HourlyPrecipIn,Conditions,Clouds,dailyrainin,SoftwareType,DateUTC
2013-08-23 00:04:00,64.2,51.4,27.94,South,171,0.0,0.0,63,0.00,,---,0.00,VWS V14.01,2013-08-23 07:04:00,
2013-08-23 00:09:00,64.0,51.2,27.94,South,171,0.0,0.0,63,0.00,,---,0.00,VWS V14.01,2013-08-23 07:09:00,
2013-08-23 00:14:00,63.9,51.0,27.94,South,171,0.0,0.0,63,0.00,,---,0.00,VWS V14.01,2013-08-23 07:14:00,
2013-08-23 00:19:00,63.7,50.9,27.94,South,171,0.0,0.0,63,0.00,,---,0.00,VWS V14.01,2013-08-23 07:19:00,
2013-08-23 00:24:00,63.5,51.1,27.94,South,171,0.0,0.0,64,0.00,,---,0.00,VWS V14.01,2013-08-23 07:24:00,
2013-08-23 00:29:00,63.1,51.2,27.94,South,171,0.0,0.0,65,0.00,,---,0.00,VWS V14.01,2013-08-23 07:29:00,
2013-08-23 00:34:00,63.0,51.4,27.94,East,88,0.0,0.0,66,0.00,,---,0.00,VWS V14.01,2013-08-23 07:34:00,
2013-08-23 00:39:00,63.0,51.0,27.94,East,88,0.0,0.0,65,0.00,,---,0.00,VWS V14.01,2013-08-23 07:39:00,
2013-08-23 00:44:00,62.8,51.3,27.94,East,87,0.0,0.0,66,0.00,,---,0.00,VWS V14.01,2013-08-23 07:44:00,
2013-08-23 00:49:00,62.4,51.3,27.94,East,81,0.0,0.0,67,0.00,,---,0.00,VWS V14.01,2013-08-23 07:49:00,
2013-08-23 00:54:00,62.1,51.0,27.94,ENE,76,0.0,0.0,67,0.00,,---,0.00,VWS V14.01,2013-08-23 07:54:00,
2013-08-23 00:59:00,61.7,51.4,27.94,NE,35,0.0,0.0,69,0.00,,---,0.00,VWS V14.01,2013-08-23 07:59:00,
2013-08-23 01:04:00,61.5,51.3,27.94,North,8,2.2,3.1,69,0.00,,---,0.00,VWS V14.01,2013-08-23 08:04:00,
2013-08-23 01:09:00,61.3,51.1,27.94,ENE,63,0.0,0.0,69,0.00,,---,0.00,VWS V14.01,2013-08-23 08:09:00,
2013-08-23 01:14:00,61.5,51.3,27.94,ENE,77,0.0,0.0,69,0.00,,---,0.00,VWS V14.01,2013-08-23 08:14:00,
2013-08-23 01:19:00,61.7,51.4,27.94,ENE,77,0.0,0.0,69,0.00,,---,0.00,VWS V14.01,2013-08-23 08:19:00,
2013-08-23 01:24:00,61.5,51.3,27.94,ENE,77,0.0,0.0,69,0.00,,---,0.00,VWS V14.01,2013-08-23 08:24:00,
2013-08-23 01:29:00,61.2,50.9,27.94,ENE,77,0.0,0.0,69,0.00,,---,0.00,VWS V14.01,2013-08-23 08:29:00,
2013-08-23 01:34:00,61.0,50.8,27.94,ENE,77,0.0,0.0,69,0.00,,---,0.00,VWS V14.01,2013-08-23 08:34:00,
2013-08-23 01:39:00,60.6,50.8,27.94,ENE,77,0.0,0.0,70,0.00,,---,0.00,VWS V14.01,2013-08-23 08:39:00,
2013-08-23 01:44:00,60.4,51.0,27.94,ENE,77,0.0,0.0,71,0.00,,---,0.00,VWS V14.01,2013-08-23 08:44:00,
2013-08-23 01:49:00,60.1,51.0,27.94,ENE,77,0.0,0.0,72,0.00,,---,0.00,VWS V14.01,2013-08-23 08:49:00,
2013-08-23 01:54:00,59.9,50.9,27.94,ENE,77,0.0,0.0,72,0.00,,---,0.00,VWS V14.01,2013-08-23 08:54:00,
2013-08-23 01:59:00,59.7,50.7,27.94,ENE,77,0.0,0.0,72,0.00,,---,0.00,VWS V14.01,2013-08-23 08:59:00,
2013-08-23 02:04:00,59.5,50.5,27.91,ENE,77,0.0,0.0,72,0.00,,---,0.00,VWS V14.01,2013-08-23 09:04:00,
2013-08-23 02:09:00,59.5,50.5,27.91,ENE,77,0.0,0.0,72,0.00,,---,0.00,VWS V14.01,2013-08-23 09:09:00,
2013-08-23 02:14:00,59.5,50.5,27.91,ENE,77,0.0,0.0,72,0.00,,---,0.00,VWS V14.01,2013-08-23 09:14:00,
2013-08-23 02:19:00,59.5,50.5,27.91,ENE,77,0.0,0.0,72,0.00,,---,0.00,VWS V14.01,2013-08-23 09:19:00,
2013-08-23 02:24:00,59.4,50.3,27.91,ENE,77,0.0,0.0,72,0.00,,---,0.00,VWS V14.01,2013-08-23 09:24:00,
2013-08-23 02:29:00,59.4,50.7,27.91,ENE,77,0.0,0.0,73,0.00,,---,0.00,VWS V14.01,2013-08-23 09:29:00,
2013-08-23 02:34:00,59.2,50.5,27.91,ENE,77,0.0,0.0,73,0.00,,---,0.00,VWS V14.01,2013-08-23 09:34:00,
2013-08-23 02:39:00,59.2,50.5,27.91,ENE,77,0.0,0.0,73,0.00,,---,0.00,VWS V14.01,2013-08-23 09:39:00,
2013-08-23 02:44:00,59.2,50.5,27.91,ENE,77,0.0,0.0,73,0.00,,---,0.00,VWS V14.01,2013-08-23 09:44:00,
2013-08-23 02:49:00,59.2,50.5,27.91,ENE,77,0.0,0.0,73,0.00,,---,0.00,VWS V14.01,2013-08-23 09:49:00,
2013-08-23 02:54:00,59.4,51.1,27.91,ENE,77,0.0,0.0,74,0.00,,---,0.00,VWS V14.01,2013-08-23 09:54:00,
2013-08-23 02:59:00,59.4,51.1,27.91,ENE,77,0.0,0.0,74,0.00,,---,0.00,VWS V14.01,2013-08-23 09:59:00,
2013-08-23 03:04:00,59.4,51.1,27.91,ENE,77,0.0,0.0,74,0.00,,---,0.00,VWS V14.01,2013-08-23 10:04:00,
2013-08-23 03:09:00,59.4,51.1,27.91,ENE,77,0.0,0.0,74,0.00,,---,0.00,VWS V14.01,2013-08-23 10:09:00,
2013-08-23 03:14:00,59.4,51.1,27.91,ENE,77,0.0,0.0,74,0.00,,---,0.00,VWS V14.01,2013-08-23 10:14:00,
2013-08-23 03:19:00,59.4,51.5,27.91,ENE,77,0.0,0.0,75,0.00,,---,0.00,VWS V14.01,2013-08-23 10:19:00,
2013-08-23 03:24:00,59.4,51.8,27.91,ENE,77,0.0,0.0,76,0.00,,---,0.00,VWS V14.01,2013-08-23 10:24:00,
2013-08-23 03:29:00,59.4,51.8,27.91,ENE,77,0.0,0.0,76,0.00,,---,0.00,VWS V14.01,2013-08-23 10:29:00,
2013-08-23 03:34:00,59.2,51.6,27.91,ENE,77,0.0,0.0,76,0.00,,---,0.00,VWS V14.01,2013-08-23 10:34:00,
2013-08-23 03:39:00,59.2,51.6,27.91,ENE,77,0.0,0.0,76,0.00,,---,0.00,VWS V14.01,2013-08-23 10:39:00,
2013-08-23 03:44:00,59.2,51.6,27.91,ENE,77,0.0,0.0,76,0.00,,---,0.00,VWS V14.01,2013-08-23 10:44:00,
2013-08-23 03:49:00,59.4,51.8,27.91,ENE,77,0.0,0.0,76,0.00,,---,0.00,VWS V14.01,2013-08-23 10:49:00,
2013-08-23 03:54:00,59.2,51.6,27.91,ENE,77,0.0,0.0,76,0.00,,---,0.00,VWS V14.01,2013-08-23 10:54:00,
2013-08-23 03:59:00,59.4,52.2,27.91,ENE,77,0.0,0.0,77,0.00,,---,0.00,VWS V14.01,2013-08-23 10:59:00,
2013-08-23 04:04:00,59.4,52.2,27.91,South,171,0.0,2.2,77,0.00,,---,0.00,VWS V14.01,2013-08-23 11:04:00,
2013-08-23 04:09:00,59.4,52.2,27.91,South,171,0.0,0.0,77,0.00,,---,0.00,VWS V14.01,2013-08-23 11:09:00,
2013-08-23 04:14:00,59.4,52.2,27.91,South,171,0.0,0.0,77,0.00,,---,0.00,VWS V14.01,2013-08-23 11:14:00,
2013-08-23 04:19:00,59.4,52.2,27.94,South,171,0.0,0.0,77,0.00,,---,0.00,VWS V14.01,2013-08-23 11:19:00,
2013-08-23 04:24:00,59.4,52.2,27.94,South,171,0.0,0.0,77,0.00,,---,0.00,VWS V14.01,2013-08-23 11:24:00,
2013-08-23 04:29:00,59.4,52.2,27.94,South,171,0.0,0.0,77,0.00,,---,0.00,VWS V14.01,2013-08-23 11:29:00,
2013-08-23 04:34:00,59.5,52.3,27.91,NNE,26,0.0,0.0,77,0.00,,---,0.00,VWS V14.01,2013-08-23 11:34:00,
2013-08-23 04:39:00,59.5,52.3,27.91,NNE,26,0.0,0.0,77,0.00,,---,0.00,VWS V14.01,2013-08-23 11:39:00,
2013-08-23 04:44:00,59.4,52.5,27.91,NE,37,0.0,0.0,78,0.00,,---,0.00,VWS V14.01,2013-08-23 11:44:00,
2013-08-23 04:49:00,59.4,52.5,27.91,North,0,2.7,2.7,78,0.00,,---,0.00,VWS V14.01,2013-08-23 11:49:00,
2013-08-23 04:55:00,59.2,52.3,27.94,NE,34,3.1,3.6,78,0.00,,---,0.00,VWS V14.01,2013-08-23 11:55:00,
2013-08-23 05:00:00,59.4,52.5,27.94,NE,56,0.0,0.0,78,0.00,,---,0.00,VWS V14.01,2013-08-23 12:00:00,
2013-08-23 05:05:00,59.4,52.2,27.94,NE,56,0.0,0.0,77,0.00,,---,0.00,VWS V14.01,2013-08-23 12:05:00,
2013-08-23 05:10:00,59.4,52.2,27.94,NE,56,0.0,0.0,77,0.00,,---,0.00,VWS V14.01,2013-08-23 12:10:00,
2013-08-23 05:15:00,59.4,52.2,27.94,NE,56,0.0,0.0,77,0.00,,---,0.00,VWS V14.01,2013-08-23 12:15:00,
2013-08-23 05:20:00,59.2,52.0,27.94,SE,134,0.0,0.0,77,0.00,,---,0.00,VWS V14.01,2013-08-23 12:20:00,
2013-08-23 05:25:00,59.4,52.2,27.94,SSE,162,0.0,0.0,77,0.00,,---,0.00,VWS V14.01,2013-08-23 12:25:00,
2013-08-23 05:30:00,59.4,52.2,27.94,South,172,0.0,0.0,77,0.00,,---,0.00,VWS V14.01,2013-08-23 12:30:00,
2013-08-23 05:35:00,59.4,52.2,27.94,South,172,0.0,0.0,77,0.00,,---,0.00,VWS V14.01,2013-08-23 12:35:00,
2013-08-23 05:40:00,59.5,52.3,27.94,South,172,0.0,0.0,77,0.00,,---,0.00,VWS V14.01,2013-08-23 12:40:00,
2013-08-23 05:45:00,59.7,52.5,27.94,South,172,0.0,0.0,77,0.00,,---,0.00,VWS V14.01,2013-08-23 12:45:00,
2013-08-23 05:50:00,59.7,52.5,27.94,South,172,0.0,0.0,77,0.00,,---,0.00,VWS V14.01,2013-08-23 12:50:00,
2013-08-23 05:55:00,59.7,52.5,27.94,South,172,0.0,0.0,77,0.00,,---,0.00,VWS V14.01,2013-08-23 12:55:00,
2013-08-23 06:00:00,59.5,52.3,27.94,South,172,0.0,0.0,77,0.00,,---,0.00,VWS V14.01,2013-08-23 13:00:00,
2013-08-23 06:05:00,59.5,52.3,27.94,NE,43,0.0,0.0,77,0.00,,---,0.00,VWS V14.01,2013-08-23 13:05:00,
2013-08-23 06:10:00,59.5,52.7,27.94,NE,43,0.0,0.0,78,0.00,,---,0.00,VWS V14.01,2013-08-23 13:10:00,
2013-08-23 06:15:00,59.4,52.2,27.94,NE,41,0.0,0.0,77,0.00,,---,0.00,VWS V14.01,2013-08-23 13:15:00,
2013-08-23 06:20:00,59.4,52.2,27.94,NE,41,0.0,0.0,77,0.00,,---,0.00,VWS V14.01,2013-08-23 13:20:00,
2013-08-23 06:25:00,59.4,52.2,27.94,NE,41,0.0,0.0,77,0.00,,---,0.00,VWS V14.01,2013-08-23 13:25:00,
2013-08-23 06:30:00,59.4,52.2,27.94,NE,41,0.0,0.0,77,0.00,,---,0.00,VWS V14.01,2013-08-23 13:30:00,
2013-08-23 06:35:00,59.5,52.7,27.94,South,188,4.0,4.0,78,0.00,,---,0.00,VWS V14.01,2013-08-23 13:35:00,
2013-08-23 06:40:00,59.5,52.3,27.94,SW,216,4.9,6.7,77,0.00,,---,0.00,VWS V14.01,2013-08-23 13:40:00,
2013-08-23 06:45:00,59.7,52.5,27.94,SSW,210,3.1,3.6,77,0.00,,---,0.00,VWS V14.01,2013-08-23 13:45:00,
2013-08-23 06:50:00,59.7,52.9,27.96,WSW,245,0.0,0.0,78,0.00,,---,0.00,VWS V14.01,2013-08-23 13:50:00,
2013-08-23 06:55:00,59.5,52.7,27.96,SW,235,0.0,0.0,78,0.00,,---,0.00,VWS V14.01,2013-08-23 13:55:00,
2013-08-23 07:00:00,59.5,52.7,27.96,SW,235,0.0,0.0,78,0.00,,---,0.00,VWS V14.01,2013-08-23 14:00:00,
2013-08-23 07:05:00,59.4,52.9,27.96,North,353,3.1,3.6,79,0.00,,---,0.00,VWS V14.01,2013-08-23 14:05:00,
2013-08-23 07:10:00,59.2,52.7,27.96,West,277,0.0,0.0,79,0.00,,---,0.00,VWS V14.01,2013-08-23 14:10:00,
2013-08-23 07:16:00,59.0,53.2,27.96,North,8,3.6,3.6,81,0.00,,---,0.00,VWS V14.01,2013-08-23 14:16:00,
2013-08-23 07:21:00,58.6,53.2,27.99,North,9,3.6,3.6,82,0.00,,---,0.00,VWS V14.01,2013-08-23 14:21:00,
2013-08-23 07:27:00,58.3,53.2,27.99,North,9,2.7,2.7,83,0.00,,---,0.00,VWS V14.01,2013-08-23 14:27:00,
2013-08-23 07:33:00,58.1,53.3,27.99,NNE,33,3.6,3.6,84,0.00,,---,0.00,VWS V14.01,2013-08-23 14:33:00,
2013-08-23 07:38:00,58.1,53.6,27.99,SSW,209,5.8,5.8,85,0.00,,---,0.00,VWS V14.01,2013-08-23 14:38:00,
2013-08-23 07:43:00,58.1,53.3,27.99,SSW,203,0.0,0.0,84,0.00,,---,0.00,VWS V14.01,2013-08-23 14:43:00,
2013-08-23 07:48:00,58.1,53.6,27.99,SSW,203,0.0,0.0,85,0.00,,---,0.00,VWS V14.01,2013-08-23 14:48:00,
2013-08-23 07:53:00,58.1,53.6,27.99,SSW,203,0.0,0.0,85,0.00,,---,0.00,VWS V14.01,2013-08-23 14:53:00,
2013-08-23 07:59:00,58.3,54.1,27.99,SSW,204,0.0,0.0,86,0.00,,---,0.00,VWS V14.01,2013-08-23 14:59:00,
2013-08-23 08:05:00,58.3,55.4,28.02,NE,42,4.0,4.0,90,0.00,,---,0.00,VWS V14.01,2013-08-23 15:05:00,
2013-08-23 08:11:00,58.3,55.7,28.02,NE,34,3.1,4.0,91,0.00,,---,0.00,VWS V14.01,2013-08-23 15:11:00,
2013-08-23 08:16:00,58.3,55.7,28.02,NNE,27,3.1,3.1,91,0.00,,---,0.00,VWS V14.01,2013-08-23 15:16:00,
2013-08-23 08:21:00,58.3,55.7,28.02,NNE,27,2.7,3.1,91,0.00,,---,0.00,VWS V14.01,2013-08-23 15:21:00,
2013-08-23 08:26:00,58.5,55.5,28.02,NNE,27,0.0,0.0,90,0.00,,---,0.00,VWS V14.01,2013-08-23 15:26:00,
2013-08-23 08:31:00,58.5,55.5,28.02,NNE,27,0.0,0.0,90,0.00,,---,0.00,VWS V14.01,2013-08-23 15:31:00,
2013-08-23 08:36:00,58.6,55.7,28.02,NNE,27,0.0,0.0,90,0.00,,---,0.00,VWS V14.01,2013-08-23 15:36:00,
2013-08-23 08:42:00,58.8,56.2,28.02,North,357,2.7,3.1,91,0.00,,---,0.00,VWS V14.01,2013-08-23 15:42:00,
2013-08-23 08:47:00,59.2,56.6,28.02,NNE,12,0.0,0.0,91,0.00,,---,0.00,VWS V14.01,2013-08-23 15:47:00,
2013-08-23 08:53:00,59.4,56.7,27.99,NNE,12,0.0,0.0,91,0.00,,---,0.00,VWS V14.01,2013-08-23 15:53:00,
2013-08-23 08:58:00,59.7,57.1,27.99,NNE,12,0.0,0.0,91,0.00,,---,0.00,VWS V14.01,2013-08-23 15:58:00,
2013-08-23 09:03:00,60.1,57.8,27.99,North,4,3.1,3.1,92,0.00,,---,0.00,VWS V14.01,2013-08-23 16:03:00,
2013-08-23 09:08:00,60.4,58.1,27.99,NNW,340,3.1,4.9,92,0.00,,---,0.00,VWS V14.01,2013-08-23 16:08:00,
2013-08-23 09:14:00,61.0,58.6,27.99,NW,308,0.0,2.7,92,0.00,,---,0.00,VWS V14.01,2013-08-23 16:14:00,
2013-08-23 09:19:00,61.5,59.2,27.99,NNW,342,0.0,0.0,92,0.00,,---,0.00,VWS V14.01,2013-08-23 16:19:00,
2013-08-23 09:25:00,61.9,59.2,27.99,NNW,348,0.0,0.0,91,0.00,,---,0.00,VWS V14.01,2013-08-23 16:25:00,
2013-08-23 09:31:00,62.8,60.1,27.99,North,0,0.0,0.0,91,0.00,,---,0.00,VWS V14.01,2013-08-23 16:31:00,
2013-08-23 09:36:00,63.3,60.7,27.99,NNE,23,0.0,0.0,91,0.00,,---,0.00,VWS V14.01,2013-08-23 16:36:00,
2013-08-23 09:41:00,64.0,61.4,27.99,North,9,2.7,3.1,91,0.00,,---,0.00,VWS V14.01,2013-08-23 16:41:00,
2013-08-23 09:46:00,64.9,61.9,27.99,East,79,0.0,0.0,90,0.00,,---,0.00,VWS V14.01,2013-08-23 16:46:00,
2013-08-23 09:52:00,65.7,61.4,27.99,ESE,122,0.0,0.0,86,0.00,,---,0.00,VWS V14.01,2013-08-23 16:52:00,
2013-08-23 09:57:00,66.4,62.7,27.99,SE,132,2.7,3.1,88,0.00,,---,0.00,VWS V14.01,2013-08-23 16:57:00,
2013-08-23 10:02:00,66.9,62.3,27.99,ENE,77,0.0,0.0,85,0.00,,---,0.00,VWS V14.01,2013-08-23 17:02:00,
2013-08-23 10:07:00,67.1,61.8,27.99,NE,46,0.0,3.1,83,0.00,,---,0.00,VWS V14.01,2013-08-23 17:07:00,
2013-08-23 10:13:00,67.1,61.1,27.99,ESE,102,4.0,4.9,81,0.00,,---,0.00,VWS V14.01,2013-08-23 17:13:00,
2013-08-23 10:18:00,66.9,60.6,27.99,SE,135,2.2,3.6,80,0.00,,---,0.00,VWS V14.01,2013-08-23 17:18:00,
2013-08-23 10:24:00,66.6,60.2,27.99,NE,56,0.0,3.1,80,0.00,,---,0.00,VWS V14.01,2013-08-23 17:24:00,
2013-08-23 10:29:00,66.4,60.0,27.99,ESE,122,2.7,3.1,80,0.00,,---,0.00,VWS V14.01,2013-08-23 17:29:00,
2013-08-23 10:35:00,66.4,60.0,27.99,SE,137,0.0,0.0,80,0.00,,---,0.00,VWS V14.01,2013-08-23 17:35:00,
2013-08-23 10:40:00,66.4,60.0,27.99,SE,137,0.0,0.0,80,0.00,,---,0.00,VWS V14.01,2013-08-23 17:40:00,
2013-08-23 10:46:00,66.7,60.4,27.99,ESE,120,0.0,0.0,80,0.00,,---,0.00,VWS V14.01,2013-08-23 17:46:00,
2013-08-23 10:52:00,66.7,59.7,27.99,ESE,104,2.7,4.0,78,0.00,,---,0.00,VWS V14.01,2013-08-23 17:52:00,
2013-08-23 10:57:00,66.9,59.8,27.99,ESE,123,3.1,3.1,78,0.00,,---,0.00,VWS V14.01,2013-08-23 17:57:00,
2013-08-23 11:02:00,66.9,59.8,27.99,SSE,151,2.7,3.1,78,0.00,,---,0.00,VWS V14.01,2013-08-23 18:02:00,
2013-08-23 11:07:00,67.3,60.2,27.99,ESE,109,0.0,0.0,78,0.00,,---,0.00,VWS V14.01,2013-08-23 18:07:00,
2013-08-23 11:13:00,67.6,59.1,27.99,SE,131,0.0,0.0,74,0.00,,---,0.00,VWS V14.01,2013-08-23 18:13:00,
2013-08-23 11:18:00,68.2,58.8,27.99,ENE,64,3.1,6.3,72,0.00,,---,0.00,VWS V14.01,2013-08-23 18:18:00,
2013-08-23 11:23:00,68.5,58.4,27.99,NE,35,5.4,5.8,70,0.00,,---,0.00,VWS V14.01,2013-08-23 18:23:00,
2013-08-23 11:28:00,68.9,58.3,27.99,ESE,103,2.7,5.8,69,0.00,,---,0.00,VWS V14.01,2013-08-23 18:28:00,
2013-08-23 11:33:00,68.9,57.5,27.99,East,83,4.0,5.4,67,0.00,,---,0.00,VWS V14.01,2013-08-23 18:33:00,
2013-08-23 11:38:00,69.1,57.7,27.99,NE,54,3.6,5.4,67,0.00,,---,0.00,VWS V14.01,2013-08-23 18:38:00,
2013-08-23 11:43:00,69.1,57.7,27.99,East,84,0.0,4.9,67,0.00,,---,0.00,VWS V14.01,2013-08-23 18:43:00,
2013-08-23 11:49:00,69.1,56.8,27.99,East,96,3.1,5.8,65,0.00,,---,0.00,VWS V14.01,2013-08-23 18:49:00,
2013-08-23 11:55:00,69.1,56.8,27.99,East,88,0.0,5.8,65,0.00,,---,0.00,VWS V14.01,2013-08-23 18:55:00,
2013-08-23 12:00:00,69.1,56.8,27.99,East,83,0.0,0.0,65,0.00,,---,0.00,VWS V14.01,2013-08-23 19:00:00,
2013-08-23 12:06:00,69.3,57.0,27.99,ENE,63,0.0,5.4,65,0.00,,---,0.00,VWS V14.01,2013-08-23 19:06:00,
2013-08-23 12:12:00,69.4,57.2,27.99,ESE,114,4.0,4.0,65,0.00,,---,0.00,VWS V14.01,2013-08-23 19:12:00,
2013-08-23 12:17:00,70.0,57.3,27.99,ESE,120,4.0,4.0,64,0.00,,---,0.00,VWS V14.01,2013-08-23 19:17:00,
2013-08-23 12:22:00,70.7,57.5,27.99,SE,138,2.7,3.1,63,0.00,,---,0.00,VWS V14.01,2013-08-23 19:22:00,
2013-08-23 12:27:00,72.0,57.8,27.99,ESE,123,2.7,3.1,61,0.00,,---,0.00,VWS V14.01,2013-08-23 19:27:00,
2013-08-23 12:33:00,72.3,55.8,27.99,ENE,66,6.7,6.7,56,0.00,,---,0.00,VWS V14.01,2013-08-23 19:33:00,
2013-08-23 12:38:00,72.5,55.9,27.96,ENE,71,5.4,5.4,56,0.00,,---,0.00,VWS V14.01,2013-08-23 19:38:00,
2013-08-23 12:44:00,72.7,55.1,27.96,ENE,60,3.6,6.3,54,0.00,,---,0.00,VWS V14.01,2013-08-23 19:44:00,
2013-08-23 12:49:00,73.0,54.9,27.96,SE,134,5.4,7.6,53,0.00,,---,0.00,VWS V14.01,2013-08-23 19:49:00,
2013-08-23 12:55:00,73.4,55.2,27.96,ENE,64,0.0,3.6,53,0.00,,---,0.00,VWS V14.01,2013-08-23 19:55:00,
2013-08-23 13:00:00,73.8,54.5,27.96,ENE,57,3.1,5.8,51,0.00,,---,0.00,VWS V14.01,2013-08-23 20:00:00,
2013-08-23 13:06:00,74.7,54.2,27.96,ENE,70,5.8,7.6,49,0.00,,---,0.00,VWS V14.01,2013-08-23 20:06:00,
2013-08-23 13:11:00,74.8,54.4,27.96,NNE,19,4.9,4.9,49,0.00,,---,0.00,VWS V14.01,2013-08-23 20:11:00,
2013-08-23 13:16:00,75.4,53.8,27.96,ENE,64,4.0,8.3,47,0.00,,---,0.00,VWS V14.01,2013-08-23 20:16:00,
2013-08-23 13:22:00,76.1,53.2,27.96,NE,35,5.4,6.3,45,0.00,,---,0.00,VWS V14.01,2013-08-23 20:22:00,
2013-08-23 13:27:00,76.6,53.1,27.96,NE,39,5.8,10.5,44,0.00,,---,0.00,VWS V14.01,2013-08-23 20:27:00,
2013-08-23 13:32:00,76.8,53.3,27.96,NE,50,8.7,8.7,44,0.00,,---,0.00,VWS V14.01,2013-08-23 20:32:00,
2013-08-23 13:37:00,76.5,53.0,27.96,North,10,5.4,6.3,44,0.00,,---,0.00,VWS V14.01,2013-08-23 20:37:00,
2013-08-23 13:43:00,75.6,52.1,27.96,East,89,4.0,5.8,44,0.00,,---,0.00,VWS V14.01,2013-08-23 20:43:00,
2013-08-23 13:48:00,75.4,52.0,27.96,East,101,2.7,5.4,44,0.00,,---,0.00,VWS V14.01,2013-08-23 20:48:00,
2013-08-23 13:54:00,75.2,52.4,27.96,ENE,63,4.9,6.3,45,0.00,,---,0.00,VWS V14.01,2013-08-23 20:54:00,
2013-08-23 13:59:00,75.0,52.3,27.96,ENE,69,0.0,5.4,45,0.00,,---,0.00,VWS V14.01,2013-08-23 20:59:00,
2013-08-23 14:05:00,75.0,52.3,27.96,East,93,3.6,5.4,45,0.00,,---,0.00,VWS V14.01,2013-08-23 21:05:00,
2013-08-23 14:10:00,76.1,52.6,27.96,ENE,60,0.0,2.7,44,0.00,,---,0.00,VWS V14.01,2013-08-23 21:10:00,
2013-08-23 14:15:00,76.8,53.3,27.96,SE,126,3.1,3.6,44,0.00,,---,0.00,VWS V14.01,2013-08-23 21:15:00,
2013-08-23 14:20:00,77.4,53.1,27.94,SE,131,2.7,4.9,43,0.00,,---,0.00,VWS V14.01,2013-08-23 21:20:00,
2013-08-23 14:26:00,77.7,52.8,27.94,ENE,71,4.5,4.5,42,0.00,,---,0.00,VWS V14.01,2013-08-23 21:26:00,
2013-08-23 14:32:00,78.3,53.3,27.94,ENE,77,4.0,5.4,42,0.00,,---,0.00,VWS V14.01,2013-08-23 21:32:00,
2013-08-23 14:37:00,78.6,53.6,27.94,ESE,118,5.8,5.8,42,0.00,,---,0.00,VWS V14.01,2013-08-23 21:37:00,
2013-08-23 14:43:00,79.2,53.5,27.94,East,88,5.4,5.4,41,0.00,,---,0.00,VWS V14.01,2013-08-23 21:43:00,
2013-08-23 14:48:00,80.1,54.3,27.94,NNE,23,4.5,4.9,41,0.00,,---,0.00,VWS V14.01,2013-08-23 21:48:00,
2013-08-23 14:53:00,80.6,53.4,27.94,NE,44,0.0,7.6,39,0.00,,---,0.00,VWS V14.01,2013-08-23 21:53:00,
2013-08-23 14:58:00,80.6,52.0,27.94,SSE,154,3.6,5.4,37,0.00,,---,0.00,VWS V14.01,2013-08-23 21:58:00,
2013-08-23 15:03:00,80.8,51.4,27.94,NE,43,3.6,5.4,36,0.00,,---,0.00,VWS V14.01,2013-08-23 22:03:00,
2013-08-23 15:09:00,80.8,49.8,27.94,ENE,62,4.0,4.0,34,0.00,,---,0.00,VWS V14.01,2013-08-23 22:09:00,
2013-08-23 15:15:00,80.8,49.0,27.94,NNE,29,3.6,4.9,33,0.00,,---,0.00,VWS V14.01,2013-08-23 22:15:00,
2013-08-23 15:21:00,81.3,50.3,27.94,East,100,4.0,4.0,34,0.00,,---,0.00,VWS V14.01,2013-08-23 22:21:00,
2013-08-23 15:26:00,81.5,51.2,27.94,East,80,3.1,3.1,35,0.00,,---,0.00,VWS V14.01,2013-08-23 22:26:00,
2013-08-23 15:31:00,81.1,49.3,27.94,ENE,77,2.7,3.1,33,0.00,,---,0.00,VWS V14.01,2013-08-23 22:31:00,
2013-08-23 15:36:00,81.0,49.2,27.94,NE,43,0.0,2.7,33,0.00,,---,0.00,VWS V14.01,2013-08-23 22:36:00,
2013-08-23 15:41:00,80.8,49.8,27.94,NE,45,3.1,3.6,34,0.00,,---,0.00,VWS V14.01,2013-08-23 22:41:00,
2013-08-23 15:47:00,80.4,48.7,27.94,NE,40,0.0,0.0,33,0.00,,---,0.00,VWS V14.01,2013-08-23 22:47:00,
2013-08-23 15:53:00,80.8,49.8,27.91,East,80,2.7,3.1,34,0.00,,---,0.00,VWS V14.01,2013-08-23 22:53:00,
2013-08-23 15:58:00,81.0,50.0,27.91,East,79,0.0,0.0,34,0.00,,---,0.00,VWS V14.01,2013-08-23 22:58:00,
2013-08-23 16:04:00,81.3,50.3,27.91,ENE,70,3.1,3.6,34,0.00,,---,0.00,VWS V14.01,2013-08-23 23:04:00,
2013-08-23 16:09:00,81.3,50.3,27.91,East,93,3.1,3.1,34,0.00,,---,0.00,VWS V14.01,2013-08-23 23:09:00,
2013-08-23 16:14:00,81.3,49.5,27.91,East,82,3.1,3.1,33,0.00,,---,0.00,VWS V14.01,2013-08-23 23:14:00,
2013-08-23 16:19:00,81.0,49.2,27.91,NE,46,2.7,3.1,33,0.00,,---,0.00,VWS V14.01,2013-08-23 23:19:00,
2013-08-23 16:25:00,80.4,50.3,27.91,NNE,31,2.7,4.0,35,0.00,,---,0.00,VWS V14.01,2013-08-23 23:25:00,
2013-08-23 16:30:00,80.1,50.7,27.91,NE,47,3.1,4.0,36,0.00,,---,0.00,VWS V14.01,2013-08-23 23:30:00,
2013-08-23 16:35:00,80.4,51.8,27.91,ENE,61,5.8,5.8,37,0.00,,---,0.00,VWS V14.01,2013-08-23 23:35:00,
2013-08-23 16:40:00,81.0,50.8,27.91,NNE,28,4.0,5.8,35,0.00,,---,0.00,VWS V14.01,2013-08-23 23:40:00,
2013-08-23 16:46:00,81.1,50.9,27.91,NE,37,3.6,4.9,35,0.00,,---,0.00,VWS V14.01,2013-08-23 23:46:00,
2013-08-23 16:52:00,80.8,49.8,27.91,NE,40,3.6,5.4,34,0.00,,---,0.00,VWS V14.01,2013-08-23 23:52:00,
2013-08-23 16:57:00,80.4,51.8,27.91,NE,41,5.8,5.8,37,0.00,,---,0.00,VWS V14.01,2013-08-23 23:57:00,
2013-08-23 17:02:00,80.2,52.3,27.91,NNE,33,2.7,4.0,38,0.00,,---,0.00,VWS V14.01,2013-08-24 00:02:00,
2013-08-23 17:08:00,80.6,52.7,27.91,NNE,22,3.1,5.4,38,0.00,,---,0.00,VWS V14.01,2013-08-24 00:08:00,
2013-08-23 17:13:00,80.8,52.1,27.91,NE,34,2.7,3.6,37,0.00,,---,0.00,VWS V14.01,2013-08-24 00:13:00,
2013-08-23 17:18:00,80.1,52.2,27.91,ENE,64,3.6,3.6,38,0.00,,---,0.00,VWS V14.01,2013-08-24 00:18:00,
2013-08-23 17:23:00,79.3,52.3,27.91,ENE,77,3.6,3.6,39,0.00,,---,0.00,VWS V14.01,2013-08-24 00:23:00,
2013-08-23 17:28:00,78.8,52.5,27.91,NE,53,2.7,3.6,40,0.00,,---,0.00,VWS V14.01,2013-08-24 00:28:00,
2013-08-23 17:33:00,79.2,52.8,27.91,NE,55,3.6,3.6,40,0.00,,---,0.00,VWS V14.01,2013-08-24 00:33:00,
2013-08-23 17:38:00,80.2,53.8,27.91,NE,49,3.1,4.0,40,0.00,,---,0.00,VWS V14.01,2013-08-24 00:38:00,
2013-08-23 17:43:00,80.8,53.5,27.91,NE,34,3.1,3.6,39,0.00,,---,0.00,VWS V14.01,2013-08-24 00:43:00,
2013-08-23 17:48:00,81.0,52.3,27.91,NE,39,0.0,0.0,37,0.00,,---,0.00,VWS V14.01,2013-08-24 00:48:00,
2013-08-23 17:53:00,80.8,52.1,27.91,ENE,77,2.7,3.1,37,0.00,,---,0.00,VWS V14.01,2013-08-24 00:53:00,
2013-08-23 17:58:00,80.6,52.7,27.91,ENE,76,3.6,4.9,38,0.00,,---,0.00,VWS V14.01,2013-08-24 00:58:00,
2013-08-23 18:03:00,80.6,52.7,27.91,ENE,57,2.7,2.7,38,0.00,,---,0.00,VWS V14.01,2013-08-24 01:03:00,
2013-08-23 18:08:00,80.8,52.8,27.91,ENE,72,3.1,3.6,38,0.00,,---,0.00,VWS V14.01,2013-08-24 01:08:00,
2013-08-23 18:13:00,80.6,53.4,27.91,East,81,0.0,0.0,39,0.00,,---,0.00,VWS V14.01,2013-08-24 01:13:00,
2013-08-23 18:18:00,80.4,53.9,27.91,NE,45,0.0,3.1,40,0.00,,---,0.00,VWS V14.01,2013-08-24 01:18:00,
2013-08-23 18:23:00,80.1,54.3,27.91,NE,48,0.0,0.0,41,0.00,,---,0.00,VWS V14.01,2013-08-24 01:23:00,
2013-08-23 18:28:00,79.2,54.1,27.91,NE,48,0.0,0.0,42,0.00,,---,0.00,VWS V14.01,2013-08-24 01:28:00,
2013-08-23 18:33:00,79.0,54.0,27.91,ENE,60,0.0,0.0,42,0.00,,---,0.00,VWS V14.01,2013-08-24 01:33:00,
2013-08-23 18:38:00,78.8,54.4,27.91,NE,47,0.0,0.0,43,0.00,,---,0.00,VWS V14.01,2013-08-24 01:38:00,
2013-08-23 18:43:00,78.8,55.1,27.91,North,350,0.0,2.7,44,0.00,,---,0.00,VWS V14.01,2013-08-24 01:43:00,
2013-08-23 18:48:00,78.6,55.5,27.91,NNE,31,4.9,4.9,45,0.00,,---,0.00,VWS V14.01,2013-08-24 01:48:00,
2013-08-23 18:53:00,78.1,55.0,27.91,NE,36,0.0,0.0,45,0.00,,---,0.00,VWS V14.01,2013-08-24 01:53:00,
2013-08-23 18:58:00,77.4,55.0,27.91,NNE,28,0.0,0.0,46,0.00,,---,0.00,VWS V14.01,2013-08-24 01:58:00,
2013-08-23 19:03:00,76.5,55.3,27.91,ENE,74,0.0,2.2,48,0.00,,---,0.00,VWS V14.01,2013-08-24 02:03:00,
2013-08-23 19:08:00,75.6,54.5,27.91,ENE,59,0.0,0.0,48,0.00,,---,0.00,VWS V14.01,2013-08-24 02:08:00,
2013-08-23 19:13:00,75.0,54.6,27.91,NE,56,0.0,0.0,49,0.00,,---,0.00,VWS V14.01,2013-08-24 02:13:00,
2013-08-23 19:18:00,74.3,55.0,27.91,ENE,58,0.0,0.0,51,0.00,,---,0.00,VWS V14.01,2013-08-24 02:18:00,
2013-08-23 19:23:00,73.8,52.9,27.91,NNE,24,3.6,5.8,48,0.00,,---,0.00,VWS V14.01,2013-08-24 02:23:00,
2013-08-23 19:28:00,73.6,51.5,27.91,NE,41,3.1,4.9,46,0.00,,---,0.00,VWS V14.01,2013-08-24 02:28:00,
2013-08-23 19:33:00,73.2,51.8,27.91,North,353,2.7,5.4,47,0.00,,---,0.00,VWS V14.01,2013-08-24 02:33:00,
2013-08-23 19:38:00,72.9,51.5,27.91,NNE,20,4.0,4.9,47,0.00,,---,0.00,VWS V14.01,2013-08-24 02:38:00,
2013-08-23 19:43:00,72.3,51.5,27.91,NNE,16,2.7,4.0,48,0.00,,---,0.00,VWS V14.01,2013-08-24 02:43:00,
2013-08-23 19:48:00,71.8,51.1,27.91,NE,36,2.2,2.7,48,0.00,,---,0.00,VWS V14.01,2013-08-24 02:48:00,
2013-08-23 19:53:00,71.1,51.0,27.91,NE,44,2.2,4.0,49,0.00,,---,0.00,VWS V14.01,2013-08-24 02:53:00,
2013-08-23 19:58:00,70.3,51.4,27.91,NE,49,3.1,4.0,51,0.00,,---,0.00,VWS V14.01,2013-08-24 02:58:00,
2013-08-23 20:03:00,69.8,50.9,27.91,East,80,0.0,2.7,51,0.00,,---,0.00,VWS V14.01,2013-08-24 03:03:00,
2013-08-23 20:08:00,69.4,51.1,27.91,East,80,0.0,2.2,52,0.00,,---,0.00,VWS V14.01,2013-08-24 03:08:00,
2013-08-23 20:13:00,68.9,51.1,27.91,NE,42,0.0,0.0,53,0.00,,---,0.00,VWS V14.01,2013-08-24 03:13:00,
2013-08-23 20:18:00,68.2,51.4,27.91,ENE,68,0.0,2.2,55,0.00,,---,0.00,VWS V14.01,2013-08-24 03:18:00,
2013-08-23 20:23:00,67.8,51.1,27.91,ENE,60,3.1,3.1,55,0.00,,---,0.00,VWS V14.01,2013-08-24 03:23:00,
2013-08-23 20:28:00,67.3,51.1,27.91,ENE,61,0.0,0.0,56,0.00,,---,0.00,VWS V14.01,2013-08-24 03:28:00,
2013-08-23 20:33:00,66.7,51.0,27.91,NNE,30,0.0,0.0,57,0.00,,---,0.00,VWS V14.01,2013-08-24 03:33:00,
2013-08-23 20:38:00,66.4,50.2,27.91,NNE,13,4.0,4.0,56,0.00,,---,0.00,VWS V14.01,2013-08-24 03:38:00,
2013-08-23 20:43:00,66.6,49.9,27.91,NE,54,5.8,5.8,55,0.00,,---,0.00,VWS V14.01,2013-08-24 03:43:00,
2013-08-23 20:48:00,67.3,49.1,27.91,NNE,23,7.2,8.1,52,0.00,,---,0.00,VWS V14.01,2013-08-24 03:48:00,
2013-08-23 20:53:00,68.0,48.2,27.94,NNE,21,4.0,5.4,49,0.00,,---,0.00,VWS V14.01,2013-08-24 03:53:00,
2013-08-23 20:58:00,68.5,48.1,27.94,North,6,3.6,6.3,48,0.00,,---,0.00,VWS V14.01,2013-08-24 03:58:00,
2013-08-23 21:01:00,68.5,48.1,27.94,NNW,343,4.0,8.7,48,0.00,,---,0.00,VWS V14.01,2013-08-24 04:01:00,
2013-08-23 21:02:00,68.7,48.3,27.94,NNE,33,2.7,4.0,48,0.00,,---,0.00,VWS V14.01,2013-08-24 04:02:00,
2013-08-23 21:04:00,68.7,47.7,27.94,NNE,25,5.4,6.3,47,0.00,,---,0.00,VWS V14.01,2013-08-24 04:04:00,
2013-08-23 21:06:00,68.9,47.9,27.94,NNE,14,4.5,4.9,47,0.00,,---,0.00,VWS V14.01,2013-08-24 04:06:00,
2013-08-23 21:09:00,69.1,47.5,27.94,NNW,343,3.6,4.0,46,0.00,,---,0.00,VWS V14.01,2013-08-24 04:09:00,
2013-08-23 21:14:00,69.3,47.6,27.94,NE,51,6.3,10.1,46,0.00,,---,0.00,VWS V14.01,2013-08-24 04:14:00,
2013-08-23 21:19:00,69.1,47.5,27.94,East,80,2.7,5.8,46,0.00,,---,0.00,VWS V14.01,2013-08-24 04:19:00,
2013-08-23 21:24:00,68.9,47.9,27.94,ENE,61,0.0,2.2,47,0.00,,---,0.00,VWS V14.01,2013-08-24 04:24:00,
2013-08-23 21:29:00,68.5,48.1,27.94,NNE,24,4.0,5.4,48,0.00,,---,0.00,VWS V14.01,2013-08-24 04:29:00,
2013-08-23 21:34:00,68.5,47.5,27.94,NNE,17,3.1,6.3,47,0.00,,---,0.00,VWS V14.01,2013-08-24 04:34:00,
2013-08-23 21:39:00,68.4,47.9,27.94,ENE,70,4.0,4.0,48,0.00,,---,0.00,VWS V14.01,2013-08-24 04:39:00,
2013-08-23 21:44:00,68.2,47.8,27.94,ENE,65,2.7,3.6,48,0.00,,---,0.00,VWS V14.01,2013-08-24 04:44:00,
2013-08-23 21:49:00,68.2,47.8,27.94,East,85,5.4,5.8,48,0.00,,---,0.00,VWS V14.01,2013-08-24 04:49:00,
2013-08-23 21:54:00,68.0,47.6,27.94,NNW,348,4.0,4.9,48,0.00,,---,0.00,VWS V14.01,2013-08-24 04:54:00,
2013-08-23 21:59:00,67.6,48.9,27.94,NNE,18,4.0,4.0,51,0.00,,---,0.00,VWS V14.01,2013-08-24 04:59:00,
2013-08-23 22:04:00,67.3,48.5,27.94,NNE,22,2.7,3.1,51,0.00,,---,0.00,VWS V14.01,2013-08-24 05:04:00,
2013-08-23 22:09:00,66.9,48.2,27.94,NNE,28,3.1,5.4,51,0.00,,---,0.00,VWS V14.01,2013-08-24 05:09:00,
2013-08-23 22:14:00,66.9,48.2,27.94,NE,56,4.0,4.9,51,0.00,,---,0.00,VWS V14.01,2013-08-24 05:14:00,
2013-08-23 22:19:00,67.1,47.9,27.94,NNE,20,2.7,4.0,50,0.00,,---,0.00,VWS V14.01,2013-08-24 05:19:00,
2013-08-23 22:24:00,67.3,47.5,27.94,NE,34,5.8,5.8,49,0.00,,---,0.00,VWS V14.01,2013-08-24 05:24:00,
2013-08-23 22:29:00,67.3,47.5,27.94,NNE,26,4.0,4.0,49,0.00,,---,0.00,VWS V14.01,2013-08-24 05:29:00,
2013-08-23 22:34:00,67.3,47.5,27.94,North,8,5.4,6.3,49,0.00,,---,0.00,VWS V14.01,2013-08-24 05:34:00,
2013-08-23 22:39:00,67.5,47.1,27.94,NE,35,7.6,7.6,48,0.00,,---,0.00,VWS V14.01,2013-08-24 05:39:00,
2013-08-23 22:44:00,67.6,47.3,27.94,NNE,16,4.0,4.0,48,0.00,,---,0.00,VWS V14.01,2013-08-24 05:44:00,
2013-08-23 22:49:00,67.6,47.3,27.94,NNE,15,6.3,6.3,48,0.00,,---,0.00,VWS V14.01,2013-08-24 05:49:00,
2013-08-23 22:54:00,67.5,47.1,27.94,North,357,3.6,8.1,48,0.00,,---,0.00,VWS V14.01,2013-08-24 05:54:00,
2013-08-23 22:59:00,67.5,47.1,27.94,NNW,332,5.4,5.4,48,0.00,,---,0.00,VWS V14.01,2013-08-24 05:59:00,
2013-08-23 23:04:00,67.3,46.9,27.94,NE,43,5.4,6.3,48,0.00,,---,0.00,VWS V14.01,2013-08-24 06:04:00,
2013-08-23 23:09:00,67.1,47.3,27.94,North,4,6.3,6.7,49,0.00,,---,0.00,VWS V14.01,2013-08-24 06:09:00,
2013-08-23 23:14:00,66.9,47.2,27.94,NNE,30,3.6,5.8,49,0.00,,---,0.00,VWS V14.01,2013-08-24 06:14:00,
2013-08-23 23:19:00,66.4,47.7,27.94,NNE,29,2.7,4.0,51,0.00,,---,0.00,VWS V14.01,2013-08-24 06:19:00,
2013-08-23 23:24:00,65.7,47.6,27.94,East,91,3.1,4.0,52,0.00,,---,0.00,VWS V14.01,2013-08-24 06:24:00,
2013-08-23 23:29:00,65.1,47.6,27.94,South,176,0.0,3.1,53,0.00,,---,0.00,VWS V14.01,2013-08-24 06:29:00,
2013-08-23 23:34:00,64.8,47.2,27.94,North,349,0.0,0.0,53,0.00,,---,0.00,VWS V14.01,2013-08-24 06:34:00,
2013-08-23 23:39:00,64.4,47.4,27.94,South,181,3.6,4.0,54,0.00,,---,0.00,VWS V14.01,2013-08-24 06:39:00,
2013-08-23 23:44:00,63.7,47.2,27.94,SW,228,0.0,3.1,55,0.00,,---,0.00,VWS V14.01,2013-08-24 06:44:00,
2013-08-23 23:49:00,63.1,47.7,27.94,SSW,200,4.0,4.5,57,0.00,,---,0.00,VWS V14.01,2013-08-24 06:49:00,
2013-08-23 23:54:00,62.4,47.5,27.94,South,183,2.2,2.7,58,0.00,,---,0.00,VWS V14.01,2013-08-24 06:54:00,
2013-08-23 23:59:00,61.7,47.7,27.94,South,183,2.2,3.6,60,0.00,,---,0.00,VWS V14.01,2013-08-24 06:59:00,